Time;durP1;ratioP1;P1;durP2;ratioP2;P2;SDS_P1;SDS_P2;PMS_P1;PMS_P2;Temp;Humidity;BMP_temperature;BMP_pressure;BME280_temperature;BME280_humidity;BME280_pressure;Samples;Min_cycle;Max_cycle;Signal;HPM_P1;HPM_P2
2021/09/15 00:00:35;;;;;;;27.50;24.70;;;;;23.40;100074.00;;;;2063514;28;20234;-55
2021/09/15 00:01:35;;;;;;;28.10;25.00;;;;;23.40;100073.00;;;;2063376;28;20214;-56
2021/09/15 00:02:35;;;;;;;29.20;25.33;;;;;23.40;100064.00;;;;2063343;28;20219;-55
2021/09/15 00:03:37;;;;;;;27.83;23.70;;;;;23.40;100073.00;;;;2063463;28;20239;-56
2021/09/15 00:04:37;;;;;;;26.95;24.08;;;;;23.40;100078.00;;;;2063003;28;20210;-55
2021/09/15 00:05:37;;;;;;;27.23;24.43;;;;;23.30;100066.00;;;;2063478;28;20915;-57
2021/09/15 00:06:38;;;;;;;28.13;24.83;;;;;23.40;100069.00;;;;2063370;28;20219;-56
2021/09/15 00:07:38;;;;;;;27.30;24.40;;;;;23.40;100075.00;;;;2063211;28;20199;-55
2021/09/15 00:08:39;;;;;;;27.03;24.13;;;;;23.40;100067.00;;;;2063364;28;20667;-53
2021/09/15 00:09:39;;;;;;;27.07;24.23;;;;;23.40;100061.00;;;;2061588;28;20266;-55
2021/09/15 00:10:40;;;;;;;27.37;24.27;;;;;23.40;100061.00;;;;2063149;28;20206;-57
2021/09/15 00:11:40;;;;;;;26.60;23.30;;;;;23.40;100057.00;;;;2063415;28;20214;-56
2021/09/15 00:12:41;;;;;;;27.07;24.13;;;;;23.40;100058.00;;;;2063324;28;20213;-53
2021/09/15 00:13:41;;;;;;;25.70;23.00;;;;;23.40;100064.00;;;;2063174;28;20210;-55
2021/09/15 00:14:41;;;;;;;31.33;24.37;;;;;23.40;100057.00;;;;2063390;28;20219;-55
2021/09/15 00:15:42;;;;;;;29.07;24.97;;;;;23.40;100059.00;;;;2063474;28;20982;-57
2021/09/15 00:16:42;;;;;;;25.20;22.70;;;;;23.40;100060.00;;;;2063155;28;20219;-56
2021/09/15 00:17:42;;;;;;;26.80;23.90;;;;;23.40;100061.00;;;;2063266;28;20226;-57
2021/09/15 00:18:43;;;;;;;26.27;23.57;;;;;23.40;100063.00;;;;2062682;28;20226;-54
2021/09/15 00:19:43;;;;;;;26.73;24.00;;;;;23.40;100063.00;;;;2065884;28;20680;-56
2021/09/15 00:20:43;;;;;;;25.20;22.50;;;;;23.40;100058.00;;;;2066742;28;21185;-55
2021/09/15 00:21:44;;;;;;;28.47;22.37;;;;;23.40;100053.00;;;;2063068;28;20211;-56
2021/09/15 00:22:44;;;;;;;25.50;22.97;;;;;23.40;100056.00;;;;2063372;28;20351;-56
2021/09/15 00:23:44;;;;;;;24.57;22.07;;;;;23.40;100060.00;;;;2062942;28;20219;-56
2021/09/15 00:24:45;;;;;;;25.83;23.17;;;;;23.40;100057.00;;;;2063325;28;20219;-54
2021/09/15 00:25:45;;;;;;;24.73;22.23;;;;;23.40;100055.00;;;;2055869;28;20227;-53
2021/09/15 00:26:46;;;;;;;25.73;23.13;;;;;23.40;100055.00;;;;2063026;28;20227;-55
2021/09/15 00:27:46;;;;;;;24.77;22.13;;;;;23.40;100051.00;;;;2063059;28;20219;-56
2021/09/15 00:28:46;;;;;;;24.90;22.40;;;;;23.40;100048.00;;;;2061275;28;20223;-57
2021/09/15 00:29:47;;;;;;;25.17;22.43;;;;;23.40;100054.00;;;;2062211;28;20215;-56
2021/09/15 00:30:47;;;;;;;25.37;22.67;;;;;23.40;100059.00;;;;2062464;28;20215;-54
2021/09/15 00:31:47;;;;;;;25.27;21.40;;;;;23.40;100051.00;;;;2062443;28;20305;-56
2021/09/15 00:32:48;;;;;;;24.70;22.00;;;;;23.40;100053.00;;;;2062529;28;20219;-56
2021/09/15 00:33:48;;;;;;;23.07;20.57;;;;;23.30;100057.00;;;;2061521;28;20222;-57
2021/09/15 00:34:48;;;;;;;25.50;22.80;;;;;23.30;100057.00;;;;2062534;28;20597;-56
2021/09/15 00:35:49;;;;;;;24.10;21.63;;;;;23.40;100051.00;;;;2062911;28;20226;-57
2021/09/15 00:36:49;;;;;;;24.53;22.07;;;;;23.30;100051.00;;;;2062089;28;20215;-57
2021/09/15 00:37:49;;;;;;;23.73;21.30;;;;;23.30;100058.00;;;;2062368;28;20334;-56
2021/09/15 00:38:49;;;;;;;23.50;20.93;;;;;23.30;100047.00;;;;2061472;28;20218;-54
2021/09/15 00:39:50;;;;;;;22.97;20.50;;;;;23.30;100048.00;;;;2062801;28;20255;-54
2021/09/15 00:40:50;;;;;;;23.83;20.57;;;;;23.30;100047.00;;;;2062240;28;20218;-55
2021/09/15 00:41:51;;;;;;;26.03;21.87;;;;;23.30;100039.00;;;;2062389;28;20591;-55
2021/09/15 00:42:51;;;;;;;23.90;21.20;;;;;23.30;100043.00;;;;2062511;28;20223;-56
2021/09/15 00:43:55;;;;;;;23.50;21.10;;;;;23.30;100045.00;;;;2070675;28;20218;-56
2021/09/15 00:44:56;;;;;;;23.75;21.15;;;;;23.30;100041.00;;;;2070844;28;20222;-55
2021/09/15 00:45:57;;;;;;;23.57;20.63;;;;;23.30;100049.00;;;;2070689;28;20222;-56
2021/09/15 00:46:57;;;;;;;22.38;20.00;;;;;23.30;100043.00;;;;2070857;28;20582;-57
2021/09/15 00:47:58;;;;;;;22.10;19.77;;;;;23.30;100037.00;;;;2071006;28;20214;-54
2021/09/15 00:48:58;;;;;;;22.63;20.33;;;;;23.30;100040.00;;;;2068283;28;20210;-56
2021/09/15 00:49:58;;;;;;;22.87;20.40;;;;;23.30;100008.00;;;;2064520;28;20755;-56
2021/09/15 00:50:59;;;;;;;24.10;21.50;;;;;23.30;100039.00;;;;2062582;28;20719;-56
2021/09/15 00:51:59;;;;;;;22.10;19.90;;;;;23.30;100037.00;;;;2053910;28;20766;-56
2021/09/15 00:53:00;;;;;;;23.83;20.43;;;;;23.30;100040.00;;;;2045930;28;20305;-56
2021/09/15 00:54:04;;;;;;;23.00;20.70;;;;;23.30;100031.00;;;;2054455;28;20321;-55
2021/09/15 00:55:04;;;;;;;22.08;19.77;;;;;23.30;100037.00;;;;2062154;28;20300;-54
2021/09/15 00:56:05;;;;;;;21.53;19.43;;;;;23.30;100027.00;;;;2062574;28;20215;-56
2021/09/15 00:57:05;;;;;;;22.87;20.70;;;;;23.30;100029.00;;;;2062397;28;20227;-54
2021/09/15 00:58:05;;;;;;;21.53;19.43;;;;;23.30;100032.00;;;;2062065;28;20619;-57
2021/09/15 00:59:06;;;;;;;22.50;20.20;;;;;23.30;100032.00;;;;2058066;28;20275;-56
2021/09/15 01:00:07;;;;;;;21.67;19.53;;;;;23.30;100030.00;;;;2062583;28;20218;-54
2021/09/15 01:01:08;;;;;;;22.17;19.92;;;;;23.30;100034.00;;;;2063797;28;20653;-56
2021/09/15 01:02:08;;;;;;;22.23;19.97;;;;;23.30;99980.00;;;;2070309;28;20264;-54
2021/09/15 01:03:09;;;;;;;22.47;19.20;;;;;23.30;100042.00;;;;2071019;28;20687;-55
2021/09/15 01:04:52;;;;;;;22.70;20.30;;;;;23.30;100030.00;;;;2069775;28;20210;-56
2021/09/15 01:05:53;;;;;;;20.70;18.60;;;;;23.30;100028.00;;;;2070599;28;20210;-55
2021/09/15 01:06:53;;;;;;;23.47;20.67;;;;;23.30;100033.00;;;;2062195;28;20211;-56
2021/09/15 01:07:54;;;;;;;22.57;20.23;;;;;23.30;100029.00;;;;2061668;28;20219;-56
2021/09/15 01:08:54;;;;;;;21.43;19.07;;;;;23.30;100033.00;;;;2068816;28;20265;-54
2021/09/15 01:09:54;;;;;;;22.27;19.97;;;;;23.30;100031.00;;;;2061433;28;20215;-54
2021/09/15 01:10:55;;;;;;;22.87;20.50;;;;;23.30;100023.00;;;;2070203;28;20717;-55
2021/09/15 01:11:55;;;;;;;21.90;19.60;;;;;23.30;100028.00;;;;2061348;28;20387;-55
2021/09/15 01:12:56;;;;;;;21.47;19.37;;;;;23.30;100033.00;;;;2062247;28;20219;-57
2021/09/15 01:13:56;;;;;;;21.43;18.73;;;;;23.30;100025.00;;;;2062017;28;20223;-56
2021/09/15 01:14:56;;;;;;;22.13;19.93;;;;;23.10;100017.00;;;;2061987;28;20285;-55
2021/09/15 01:15:58;;;;;;;21.30;19.10;;;;;23.30;100020.00;;;;2070139;28;20222;-55
2021/09/15 01:16:59;;;;;;;21.10;18.90;;;;;23.30;100023.00;;;;2070516;28;20218;-57
2021/09/15 01:17:59;;;;;;;20.97;18.83;;;;;23.30;100022.00;;;;2070878;28;20293;-56
2021/09/15 01:18:59;;;;;;;22.23;20.07;;;;;23.30;100017.00;;;;2067800;28;20210;-56
2021/09/15 01:20:01;;;;;;;20.70;18.60;;;;;23.30;100021.00;;;;2064206;28;20258;-56
2021/09/15 01:21:02;;;;;;;21.30;19.08;;;;;23.30;100023.00;;;;2062682;28;20214;-55
2021/09/15 01:22:02;;;;;;;21.80;19.70;;;;;23.30;100016.00;;;;2062033;28;20315;-57
2021/09/15 01:23:03;;;;;;;21.23;19.03;;;;;23.30;100020.00;;;;2062222;28;20516;-56
2021/09/15 01:24:03;;;;;;;20.33;18.20;;;;;23.30;100021.00;;;;2062684;28;20220;-53
2021/09/15 01:25:03;;;;;;;25.90;18.67;;;;;23.30;100015.00;;;;2062482;28;20223;-57
2021/09/15 01:26:04;;;;;;;20.80;18.70;;;;;23.30;100009.00;;;;2061017;28;20308;-57
2021/09/15 01:27:04;;;;;;;21.60;19.10;;;;;23.30;100021.00;;;;2062714;28;20225;-57
2021/09/15 01:28:04;;;;;;;21.10;19.00;;;;;23.30;100013.00;;;;2062474;28;20218;-54
2021/09/15 01:29:11;;;;;;;21.87;19.67;;;;;23.20;100017.00;;;;2061327;28;20254;-53
2021/09/15 01:30:11;;;;;;;19.08;17.17;;;;;23.30;100018.00;;;;2053747;28;20246;-54
2021/09/15 01:31:12;;;;;;;19.87;17.60;;;;;23.30;100018.00;;;;2054448;28;20212;-54
2021/09/15 01:32:14;;;;;;;19.90;17.90;;;;;23.30;100016.00;;;;2053731;28;20216;-56
2021/09/15 01:33:16;;;;;;;20.50;18.42;;;;;23.30;100017.00;;;;2053535;28;20216;-54
2021/09/15 01:34:16;;;;;;;20.40;18.25;;;;;23.30;100014.00;;;;2061584;28;20225;-56
2021/09/15 01:35:16;;;;;;;18.83;17.03;;;;;23.30;100015.00;;;;2062286;28;20290;-54
2021/09/15 01:36:17;;;;;;;19.67;17.67;;;;;23.30;100010.00;;;;2061065;28;20222;-55
2021/09/15 01:37:17;;;;;;;19.83;17.93;;;;;23.30;100010.00;;;;2062719;28;20210;-55
2021/09/15 01:38:17;;;;;;;19.77;17.70;;;;;23.30;100015.00;;;;2062405;28;20223;-54
2021/09/15 01:39:18;;;;;;;19.83;17.80;;;;;23.30;100013.00;;;;2061046;28;20214;-55
2021/09/15 01:40:18;;;;;;;19.83;17.73;;;;;23.30;100008.00;;;;2062562;28;20298;-56
2021/09/15 01:41:18;;;;;;;19.13;17.23;;;;;23.30;100006.00;;;;2069651;28;20214;-55
2021/09/15 01:42:19;;;;;;;20.77;18.67;;;;;23.30;100006.00;;;;2070443;28;20202;-57
2021/09/15 01:43:19;;;;;;;18.80;16.87;;;;;23.30;100004.00;;;;2067671;28;20215;-57
2021/09/15 01:44:20;;;;;;;18.57;16.67;;;;;23.30;100007.00;;;;2070737;28;20575;-54
2021/09/15 01:45:20;;;;;;;20.47;18.20;;;;;23.30;100006.00;;;;2070606;28;20224;-55
2021/09/15 01:46:20;;;;;;;18.73;16.90;;;;;23.20;100000.00;;;;2070652;28;20206;-55
2021/09/15 01:47:21;;;;;;;18.23;16.13;;;;;23.30;100012.00;;;;2069970;28;20671;-56
2021/09/15 01:48:21;;;;;;;19.00;17.10;;;;;23.30;100007.00;;;;2070587;28;20288;-56
2021/09/15 01:49:21;;;;;;;18.90;16.97;;;;;23.20;99993.00;;;;2066362;28;20215;-56
2021/09/15 01:50:22;;;;;;;18.47;16.67;;;;;23.30;99964.00;;;;2062499;28;20207;-56
2021/09/15 01:51:22;;;;;;;18.90;17.00;;;;;23.30;100002.00;;;;2062464;28;20227;-54
2021/09/15 01:52:22;;;;;;;19.20;17.23;;;;;23.30;99996.00;;;;2062281;28;20198;-56
2021/09/15 01:53:23;;;;;;;19.20;17.27;;;;;23.30;100000.00;;;;2062406;28;20214;-57
2021/09/15 01:54:23;;;;;;;19.13;17.33;;;;;23.20;100002.00;;;;2062465;28;20688;-56
2021/09/15 01:55:25;;;;;;;18.63;16.73;;;;;23.30;99992.00;;;;2061566;28;20273;-56
2021/09/15 01:56:26;;;;;;;17.83;16.02;;;;;23.30;99988.00;;;;2061893;28;20533;-54
2021/09/15 01:57:26;;;;;;;18.17;16.23;;;;;23.20;99993.00;;;;2062334;28;20280;-54
2021/09/15 01:58:26;;;;;;;18.87;17.07;;;;;23.30;99992.00;;;;2062077;28;20211;-56
2021/09/15 01:59:27;;;;;;;19.10;17.20;;;;;23.30;99989.00;;;;2061299;28;20325;-55
2021/09/15 02:00:27;;;;;;;17.33;15.53;;;;;23.30;99986.00;;;;2062501;28;20221;-57
2021/09/15 02:01:28;;;;;;;19.33;17.50;;;;;23.30;99988.00;;;;2062235;28;20314;-56
2021/09/15 02:02:28;;;;;;;17.33;15.73;;;;;23.20;99978.00;;;;2062490;28;20222;-55
2021/09/15 02:03:28;;;;;;;16.60;15.03;;;;;23.30;99986.00;;;;2061108;28;20219;-54
2021/09/15 02:04:29;;;;;;;19.63;16.90;;;;;23.20;99979.00;;;;2062264;28;20207;-55
2021/09/15 02:05:29;;;;;;;18.90;17.10;;;;;23.20;99984.00;;;;2062570;28;20222;-56
2021/09/15 02:06:30;;;;;;;23.30;16.90;;;;;23.20;99978.00;;;;2062439;28;20210;-56
2021/09/15 02:07:30;;;;;;;17.33;15.63;;;;;23.20;99972.00;;;;2062417;28;20466;-57
2021/09/15 02:08:30;;;;;;;18.00;16.23;;;;;23.20;99973.00;;;;2061923;28;20226;-55
2021/09/15 02:09:31;;;;;;;17.30;15.60;;;;;23.20;99978.00;;;;2061124;28;20313;-55
2021/09/15 02:10:31;;;;;;;17.53;15.87;;;;;23.30;99971.00;;;;2062420;28;20778;-56
2021/09/15 02:11:34;;;;;;;17.60;15.63;;;;;23.30;99973.00;;;;2062517;28;20215;-56
2021/09/15 02:12:34;;;;;;;17.05;15.32;;;;;23.20;99982.00;;;;2062322;28;20280;-56
2021/09/15 02:13:35;;;;;;;17.13;15.57;;;;;23.20;99973.00;;;;2062031;28;20691;-54
2021/09/15 02:14:35;;;;;;;17.90;16.00;;;;;23.20;99971.00;;;;2062210;28;20231;-54
2021/09/15 02:15:35;;;;;;;17.70;15.80;;;;;23.20;99969.00;;;;2065764;28;20217;-54
2021/09/15 02:16:36;;;;;;;17.57;15.87;;;;;23.20;99968.00;;;;2070332;28;20218;-54
2021/09/15 02:17:36;;;;;;;17.40;15.80;;;;;23.30;99971.00;;;;2062418;28;20222;-55
2021/09/15 02:18:37;;;;;;;16.83;15.17;;;;;23.20;99972.00;;;;2061915;28;20223;-53
2021/09/15 02:19:37;;;;;;;17.40;15.70;;;;;23.20;99966.00;;;;2062249;28;20269;-54
2021/09/15 02:20:38;;;;;;;16.80;15.10;;;;;23.20;99964.00;;;;2062388;28;20293;-56
2021/09/15 02:21:39;;;;;;;15.80;14.20;;;;;23.20;99968.00;;;;2062243;28;20207;-57
2021/09/15 02:22:39;;;;;;;16.50;14.90;;;;;23.30;99963.00;;;;2062170;28;20218;-54
2021/09/15 02:23:39;;;;;;;16.70;15.07;;;;;23.20;99960.00;;;;2062271;28;20579;-55
2021/09/15 02:24:40;;;;;;;17.60;15.90;;;;;23.30;99963.00;;;;2062402;28;20225;-56
2021/09/15 02:25:40;;;;;;;16.33;14.73;;;;;23.30;99964.00;;;;2062383;28;20261;-56
2021/09/15 02:26:40;;;;;;;16.13;14.63;;;;;23.30;99957.00;;;;2066508;28;20682;-57
2021/09/15 02:27:41;;;;;;;17.70;15.90;;;;;23.30;99964.00;;;;2070118;28;20334;-56
2021/09/15 02:28:41;;;;;;;16.87;15.17;;;;;23.20;99965.00;;;;2069316;28;20211;-54
2021/09/15 02:29:42;;;;;;;15.53;13.93;;;;;23.30;99965.00;;;;2069120;28;20219;-57
2021/09/15 02:30:42;;;;;;;16.47;14.83;;;;;23.30;99967.00;;;;2069551;28;20300;-57
2021/09/15 02:31:42;;;;;;;15.30;13.90;;;;;23.20;99962.00;;;;2069599;28;20881;-56
2021/09/15 02:32:43;;;;;;;16.13;14.60;;;;;23.30;99966.00;;;;2069331;28;20312;-56
2021/09/15 02:33:43;;;;;;;15.33;13.83;;;;;23.20;99916.00;;;;2069221;28;20214;-57
2021/09/15 02:34:46;;;;;;;15.80;14.20;;;;;23.20;99964.00;;;;2069753;28;20663;-55
2021/09/15 02:35:46;;;;;;;16.33;14.70;;;;;23.30;99958.00;;;;2069328;28;20310;-56
2021/09/15 02:36:46;;;;;;;15.10;13.60;;;;;23.30;99954.00;;;;2069937;28;20245;-57
2021/09/15 02:37:47;;;;;;;15.30;13.90;;;;;23.30;99953.00;;;;2069661;28;20218;-55
2021/09/15 02:38:47;;;;;;;16.13;14.53;;;;;23.20;99953.00;;;;2069010;28;20332;-55
2021/09/15 02:39:47;;;;;;;15.60;14.20;;;;;23.20;99958.00;;;;2070052;28;20225;-55
2021/09/15 02:40:48;;;;;;;13.97;12.63;;;;;23.20;99950.00;;;;2069990;28;20214;-57
2021/09/15 02:41:48;;;;;;;14.07;12.63;;;;;23.20;99951.00;;;;2070234;28;20226;-55
2021/09/15 02:42:48;;;;;;;15.40;13.90;;;;;23.20;99950.00;;;;2070122;28;20217;-59
2021/09/15 02:43:49;;;;;;;15.33;13.83;;;;;23.20;99952.00;;;;2070415;28;20654;-59
2021/09/15 02:44:49;;;;;;;16.20;14.70;;;;;23.20;99951.00;;;;2070464;28;20269;-58
2021/09/15 02:45:49;;;;;;;15.10;13.70;;;;;23.20;99965.00;;;;2070376;28;20214;-54
2021/09/15 02:46:50;;;;;;;17.40;15.70;;;;;23.20;99951.00;;;;2070169;28;20214;-54
2021/09/15 02:47:50;;;;;;;15.30;13.90;;;;;23.20;99960.00;;;;2070460;28;20218;-55
2021/09/15 02:48:50;;;;;;;15.93;14.50;;;;;23.20;99969.00;;;;2068461;28;20210;-57
2021/09/15 02:49:51;;;;;;;15.73;14.03;;;;;23.20;99958.00;;;;2063342;28;20297;-57
2021/09/15 02:50:51;;;;;;;15.97;14.47;;;;;23.30;99964.00;;;;2062267;28;20734;-56
2021/09/15 02:51:51;;;;;;;14.97;13.40;;;;;23.30;99966.00;;;;2061737;28;20211;-54
2021/09/15 02:52:52;;;;;;;15.93;14.13;;;;;23.20;99961.00;;;;2060080;28;20251;-53
2021/09/15 02:53:52;;;;;;;14.43;13.03;;;;;23.20;99956.00;;;;2062228;28;20219;-54
2021/09/15 02:54:52;;;;;;;14.47;13.10;;;;;23.20;99959.00;;;;2062296;28;20313;-55
2021/09/15 02:55:53;;;;;;;14.53;13.13;;;;;23.30;99954.00;;;;2062213;28;20210;-57
2021/09/15 02:56:53;;;;;;;14.33;12.93;;;;;23.20;99956.00;;;;2062224;28;20211;-56
2021/09/15 02:57:53;;;;;;;14.40;13.07;;;;;23.20;99956.00;;;;2068752;28;20214;-57
2021/09/15 02:58:54;;;;;;;14.10;12.70;;;;;23.20;99969.00;;;;2069037;28;20278;-56
2021/09/15 02:59:54;;;;;;;14.60;13.20;;;;;23.20;99962.00;;;;2070365;28;20210;-53
2021/09/15 03:00:54;;;;;;;15.23;13.73;;;;;23.20;99960.00;;;;2070292;28;21121;-55
2021/09/15 03:01:55;;;;;;;14.10;12.70;;;;;23.20;99951.00;;;;2070278;28;20694;-57
2021/09/15 03:02:55;;;;;;;14.30;12.90;;;;;23.20;99955.00;;;;2070289;28;20702;-55
2021/09/15 03:03:56;;;;;;;13.90;12.50;;;;;23.20;99963.00;;;;2070211;28;20298;-55
2021/09/15 03:04:56;;;;;;;15.10;13.80;;;;;23.30;99964.00;;;;2070046;28;20257;-54
2021/09/15 03:05:56;;;;;;;14.20;12.80;;;;;23.30;99965.00;;;;2068295;28;20292;-53
2021/09/15 03:06:57;;;;;;;14.00;12.60;;;;;23.20;99959.00;;;;2070259;28;20229;-57
2021/09/15 03:08:01;;;;;;;14.23;12.93;;;;;23.20;99961.00;;;;2069858;28;20653;-56
2021/09/15 03:09:01;;;;;;;13.82;12.52;;;;;23.20;99968.00;;;;2051224;28;20719;-57
2021/09/15 03:10:03;;;;;;;14.43;13.13;;;;;23.20;99960.00;;;;2053626;28;20230;-56
2021/09/15 03:11:03;;;;;;;12.93;11.73;;;;;23.20;99961.00;;;;2059571;28;20294;-57
2021/09/15 03:12:04;;;;;;;14.77;13.37;;;;;23.20;99960.00;;;;2062321;28;20831;-56
2021/09/15 03:13:04;;;;;;;15.23;13.67;;;;;23.20;99956.00;;;;2062087;28;20215;-56
2021/09/15 03:14:04;;;;;;;14.10;12.70;;;;;23.20;99961.00;;;;2062136;28;20219;-54
2021/09/15 03:15:05;;;;;;;13.97;12.67;;;;;23.20;99956.00;;;;2062264;28;20215;-55
2021/09/15 03:16:06;;;;;;;13.60;12.30;;;;;23.30;99952.00;;;;2062321;28;21029;-56
2021/09/15 03:17:06;;;;;;;13.97;12.77;;;;;23.20;99953.00;;;;2061788;28;20828;-56
2021/09/15 03:18:06;;;;;;;14.30;13.00;;;;;23.20;99956.00;;;;2062223;28;20322;-54
2021/09/15 03:19:07;;;;;;;13.17;11.97;;;;;23.20;99959.00;;;;2061908;28;20331;-54
2021/09/15 03:20:08;;;;;;;13.93;12.63;;;;;23.20;99950.00;;;;2063212;28;20288;-55
2021/09/15 03:21:08;;;;;;;13.67;12.37;;;;;23.20;99950.00;;;;2061964;28;20214;-56
2021/09/15 03:22:08;;;;;;;13.60;12.30;;;;;23.20;99954.00;;;;2062042;28;20462;-56
2021/09/15 03:23:09;;;;;;;13.20;12.00;;;;;23.20;99946.00;;;;2062171;28;20704;-54
2021/09/15 03:24:09;;;;;;;13.20;11.90;;;;;23.20;99948.00;;;;2060944;28;20576;-54
2021/09/15 03:25:10;;;;;;;13.53;12.20;;;;;23.20;99952.00;;;;2061698;28;20301;-54
2021/09/15 03:26:10;;;;;;;13.37;12.17;;;;;23.20;99952.00;;;;2062301;28;20207;-56
2021/09/15 03:27:10;;;;;;;14.00;12.60;;;;;23.20;99951.00;;;;2062241;28;20218;-55
2021/09/15 03:28:11;;;;;;;14.27;12.83;;;;;23.20;99950.00;;;;2062170;28;20207;-56
2021/09/15 03:29:11;;;;;;;13.47;12.17;;;;;23.20;99951.00;;;;2060503;28;20219;-53
2021/09/15 03:30:11;;;;;;;12.00;10.90;;;;;23.20;99959.00;;;;2062019;28;20683;-54
2021/09/15 03:31:12;;;;;;;14.10;12.80;;;;;23.20;99956.00;;;;2063297;28;20627;-55
2021/09/15 03:32:12;;;;;;;12.30;11.20;;;;;23.20;99955.00;;;;2063573;28;20233;-56
2021/09/15 03:33:13;;;;;;;13.77;12.43;;;;;23.20;99945.00;;;;2063671;28;20218;-56
2021/09/15 03:34:13;;;;;;;12.07;10.97;;;;;23.20;99949.00;;;;2063565;28;20644;-54
2021/09/15 03:35:13;;;;;;;12.70;11.50;;;;;23.20;99950.00;;;;2062920;28;20226;-54
2021/09/15 03:36:14;;;;;;;13.70;12.40;;;;;23.20;99941.00;;;;2063533;28;20702;-55
2021/09/15 03:37:14;;;;;;;13.50;12.23;;;;;23.20;99949.00;;;;2063672;28;20641;-57
2021/09/15 03:38:14;;;;;;;12.60;11.40;;;;;23.20;99948.00;;;;2063254;28;20230;-56
2021/09/15 03:39:15;;;;;;;12.67;11.37;;;;;23.20;99943.00;;;;2062152;28;20210;-56
2021/09/15 03:40:15;;;;;;;12.83;11.67;;;;;23.20;99942.00;;;;2063690;28;20215;-55
2021/09/15 03:41:15;;;;;;;12.03;10.93;;;;;23.20;99941.00;;;;2063523;28;20218;-57
2021/09/15 03:42:16;;;;;;;12.90;11.70;;;;;23.20;99940.00;;;;2063532;28;20322;-54
2021/09/15 03:43:16;;;;;;;12.90;11.70;;;;;23.20;99939.00;;;;2063483;28;20285;-56
2021/09/15 03:44:16;;;;;;;12.80;11.60;;;;;23.20;99941.00;;;;2063625;28;20226;-54
2021/09/15 03:45:17;;;;;;;13.17;11.97;;;;;23.20;99949.00;;;;2063433;28;20706;-53
2021/09/15 03:46:17;;;;;;;12.53;11.37;;;;;23.20;99929.00;;;;2063398;28;20226;-57
2021/09/15 03:47:17;;;;;;;12.03;10.93;;;;;23.20;99949.00;;;;2063472;28;20683;-55
2021/09/15 03:48:18;;;;;;;12.23;11.20;;;;;23.20;99931.00;;;;2063484;28;20440;-55
2021/09/15 03:49:18;;;;;;;12.57;11.47;;;;;23.20;99939.00;;;;2064626;28;20218;-56
2021/09/15 03:50:18;;;;;;;12.20;11.10;;;;;23.20;99929.00;;;;2062962;28;20219;-56
2021/09/15 03:51:19;;;;;;;12.87;11.47;;;;;23.20;99930.00;;;;2062972;28;20211;-56
2021/09/15 03:52:19;;;;;;;12.10;10.87;;;;;23.20;99926.00;;;;2063531;28;20226;-56
2021/09/15 03:53:19;;;;;;;10.73;9.83;;;;;23.20;99938.00;;;;2063240;28;20278;-56
2021/09/15 03:54:20;;;;;;;12.20;11.10;;;;;23.20;99931.00;;;;2063443;28;20223;-54
2021/09/15 03:55:20;;;;;;;11.60;10.60;;;;;23.20;99931.00;;;;2063492;28;20664;-55
2021/09/15 03:56:21;;;;;;;11.40;10.37;;;;;23.20;99927.00;;;;2063307;28;20229;-54
2021/09/15 03:57:21;;;;;;;11.40;10.40;;;;;23.20;99927.00;;;;2063354;28;20210;-55
2021/09/15 03:58:22;;;;;;;11.77;10.70;;;;;23.20;99934.00;;;;2063530;28;20299;-55
2021/09/15 03:59:22;;;;;;;12.10;11.00;;;;;23.20;99929.00;;;;2061990;28;20266;-54
2021/09/15 04:00:22;;;;;;;12.10;11.00;;;;;23.20;99932.00;;;;2063130;28;20219;-56
2021/09/15 04:01:23;;;;;;;12.83;11.67;;;;;23.20;99932.00;;;;2063249;28;20215;-56
2021/09/15 04:02:23;;;;;;;12.67;11.50;;;;;23.20;99926.00;;;;2063320;28;20683;-56
2021/09/15 04:03:23;;;;;;;11.53;10.33;;;;;23.20;99920.00;;;;2063402;28;20218;-56
2021/09/15 04:04:24;;;;;;;12.33;10.83;;;;;23.20;99920.00;;;;2063215;28;20207;-57
2021/09/15 04:05:24;;;;;;;12.33;11.13;;;;;23.20;99929.00;;;;2063300;28;20211;-55
2021/09/15 04:06:25;;;;;;;11.20;10.20;;;;;23.20;99918.00;;;;2063482;28;20306;-55
2021/09/15 04:07:25;;;;;;;10.73;9.83;;;;;23.20;99920.00;;;;2063219;28;20624;-56
2021/09/15 04:08:25;;;;;;;11.50;10.50;;;;;23.20;99925.00;;;;2062989;28;20215;-56
2021/09/15 04:09:26;;;;;;;11.67;10.57;;;;;23.20;99913.00;;;;2062059;28;20229;-54
2021/09/15 04:10:26;;;;;;;11.10;10.10;;;;;23.10;99922.00;;;;2063105;28;20215;-54
2021/09/15 04:11:26;;;;;;;11.30;10.20;;;;;23.20;99913.00;;;;2063277;28;20215;-54
2021/09/15 04:12:27;;;;;;;11.27;10.27;;;;;23.20;99920.00;;;;2064247;28;20293;-54
2021/09/15 04:13:27;;;;;;;11.97;10.93;;;;;23.20;99921.00;;;;2069568;28;20694;-56
2021/09/15 04:14:27;;;;;;;12.17;9.70;;;;;23.20;99907.00;;;;2063778;28;20266;-55
2021/09/15 04:15:28;;;;;;;12.67;9.70;;;;;23.20;99917.00;;;;2063181;28;20226;-54
2021/09/15 04:16:29;;;;;;;11.23;10.13;;;;;23.20;99919.00;;;;2061593;28;20214;-52
2021/09/15 04:17:29;;;;;;;10.43;9.53;;;;;23.20;99918.00;;;;2059346;28;20226;-54
2021/09/15 04:18:29;;;;;;;10.57;9.57;;;;;23.20;99919.00;;;;2062771;28;20294;-55
2021/09/15 04:19:31;;;;;;;10.80;9.60;;;;;23.20;99922.00;;;;2062142;28;20215;-55
2021/09/15 04:20:31;;;;;;;11.02;9.90;;;;;23.20;99925.00;;;;2062610;28;20265;-55
2021/09/15 04:21:32;;;;;;;10.53;9.37;;;;;23.30;99909.00;;;;2062391;28;20743;-58
2021/09/15 04:22:34;;;;;;;11.13;10.13;;;;;23.30;99920.00;;;;2063191;28;20298;-58
2021/09/15 04:23:46;;;;;;;10.93;9.82;;;;;23.30;99915.00;;;;2062800;28;20214;-56
2021/09/15 04:31:27;;;;;;;10.75;9.73;;;;;23.30;99915.00;;;;2061729;28;20214;-54
2021/09/15 04:32:27;;;;;;;9.73;8.82;;;;;23.30;99915.00;;;;2062028;28;20215;-53
2021/09/15 04:33:28;;;;;;;11.20;10.20;;;;;23.40;99908.00;;;;2062988;28;20311;-56
2021/09/15 04:34:28;;;;;;;10.20;9.20;;;;;23.30;99912.00;;;;2063120;28;20215;-55
2021/09/15 04:35:29;;;;;;;10.53;9.53;;;;;23.30;99910.00;;;;2062820;28;20238;-54
2021/09/15 04:36:29;;;;;;;10.07;8.97;;;;;23.10;99910.00;;;;2062593;28;20210;-56
2021/09/15 04:37:29;;;;;;;10.90;9.20;;;;;23.30;99912.00;;;;2062836;28;20273;-53
2021/09/15 04:38:30;;;;;;;11.03;9.93;;;;;23.30;99918.00;;;;2062740;28;20218;-55
2021/09/15 04:39:30;;;;;;;10.20;9.20;;;;;23.30;99911.00;;;;2060883;28;20580;-55
2021/09/15 04:40:30;;;;;;;9.83;9.03;;;;;23.30;99917.00;;;;2062010;28;20356;-56
2021/09/15 04:41:31;;;;;;;11.20;10.13;;;;;23.30;99909.00;;;;2062247;28;20222;-55
2021/09/15 04:42:31;;;;;;;10.10;9.20;;;;;23.30;99909.00;;;;2059610;28;20226;-55
2021/09/15 04:43:32;;;;;;;9.93;8.90;;;;;23.30;99918.00;;;;2061410;28;20219;-55
2021/09/15 04:44:32;;;;;;;10.17;9.30;;;;;23.30;99919.00;;;;2062637;28;20659;-54
2021/09/15 04:45:32;;;;;;;12.63;9.63;;;;;23.30;99917.00;;;;2062484;28;20731;-56
2021/09/15 04:46:33;;;;;;;9.93;9.03;;;;;23.30;99913.00;;;;2059956;28;20664;-55
2021/09/15 04:47:33;;;;;;;10.10;9.10;;;;;23.30;99909.00;;;;2065869;28;20612;-55
2021/09/15 04:48:33;;;;;;;10.80;9.03;;;;;23.30;99907.00;;;;2062942;28;20226;-55
2021/09/15 04:49:34;;;;;;;10.67;9.67;;;;;23.30;99908.00;;;;2054135;28;20206;-54
2021/09/15 04:50:34;;;;;;;10.50;9.60;;;;;23.30;99907.00;;;;2060810;28;20706;-54
2021/09/15 04:51:35;;;;;;;9.93;9.03;;;;;23.20;99902.00;;;;2061160;28;20214;-55
2021/09/15 04:52:35;;;;;;;9.80;9.00;;;;;23.30;99905.00;;;;2061155;28;20222;-55
2021/09/15 04:53:36;;;;;;;10.23;9.23;;;;;23.30;99903.00;;;;2061352;28;20219;-55
2021/09/15 04:54:36;;;;;;;9.43;8.53;;;;;23.30;99906.00;;;;2061803;28;20298;-54
2021/09/15 04:55:36;;;;;;;10.20;9.30;;;;;23.30;99904.00;;;;2065927;28;20210;-55
2021/09/15 04:56:37;;;;;;;9.67;8.77;;;;;23.30;99904.00;;;;2069755;28;20530;-56
2021/09/15 04:57:37;;;;;;;11.47;9.27;;;;;23.30;99893.00;;;;2070434;28;20218;-56
2021/09/15 04:58:37;;;;;;;9.90;9.00;;;;;23.30;99900.00;;;;2068772;28;20684;-58
2021/09/15 04:59:38;;;;;;;9.50;8.63;;;;;23.30;99853.00;;;;2068577;28;20587;-53
2021/09/15 05:00:38;;;;;;;9.20;8.40;;;;;23.30;99896.00;;;;2069488;28;20636;-53
2021/09/15 05:01:38;;;;;;;9.13;8.23;;;;;23.30;99896.00;;;;2021050;28;20638;-54
2021/09/15 05:02:39;;;;;;;8.80;8.00;;;;;23.30;99888.00;;;;2055968;28;20214;-56